Time;durP1;ratioP1;P1;durP2;ratioP2;P2;SDS_P1;SDS_P2;PMS_P1;PMS_P2;Temp;Humidity;BMP_temperature;BMP_pressure;BME280_temperature;BME280_humidity;BME280_pressure;Samples;Min_cycle;Max_cycle;Signal;HPM_P1;HPM_P2
2023/04/26 00:01:07;;;;;;;15.82;7.18;;;;;;;10.70;58.53;101313.56;5074099;28;20056;-60
2023/04/26 00:03:34;;;;;;;13.43;6.28;;;;;;;10.56;58.48;101317.34;5065343;28;20408;-60
2023/04/26 00:06:02;;;;;;;22.08;6.75;;;;;;;10.64;58.25;101311.97;5061371;28;20058;-60
2023/04/26 00:08:29;;;;;;;22.33;6.90;;;;;;;10.72;57.49;101322.31;5075434;28;20053;-61
2023/04/26 00:10:57;;;;;;;18.98;6.72;;;;;;;10.66;57.81;101312.50;5074056;28;20041;-61
2023/04/26 00:13:24;;;;;;;22.27;7.28;;;;;;;10.75;57.57;101305.19;5058459;28;20049;-67
2023/04/26 00:15:52;;;;;;;12.52;6.22;;;;;;;10.64;57.83;101297.38;5059655;28;20048;-68
2023/04/26 00:18:19;;;;;;;16.33;6.07;;;;;;;10.50;57.81;101299.25;5075532;28;20053;-61
2023/04/26 00:20:47;;;;;;;17.60;6.70;;;;;;;10.40;58.04;101304.91;5073533;28;20079;-66
2023/04/26 00:23:14;;;;;;;16.88;6.65;;;;;;;10.37;58.30;101308.28;5074142;28;20072;-67
2023/04/26 00:25:41;;;;;;;16.70;6.22;;;;;;;10.39;58.13;101295.81;5073789;28;20078;-66
2023/04/26 00:28:09;;;;;;;15.30;5.95;;;;;;;10.35;57.60;101293.97;5074969;28;20400;-68
2023/04/26 00:30:40;;;;;;;15.63;6.20;;;;;;;10.27;58.12;101291.91;5055680;28;20128;-68
2023/04/26 00:33:08;;;;;;;17.98;7.15;;;;;;;10.17;58.08;101288.19;5073378;28;20052;-67
2023/04/26 00:35:37;;;;;;;19.75;6.45;;;;;;;10.31;58.13;101288.25;5072526;28;20067;-60
2023/04/26 00:38:04;;;;;;;15.30;6.28;;;;;;;10.27;57.91;101289.94;5074241;28;20064;-60
2023/04/26 00:40:34;;;;;;;15.07;6.97;;;;;;;10.30;57.97;101283.88;5072807;28;20040;-60
2023/04/26 00:43:02;;;;;;;19.55;6.45;;;;;;;10.13;nan;101278.03;5075202;28;20388;-60
2023/04/26 00:45:30;;;;;;;17.05;7.20;;;;;;;10.08;58.81;101284.44;5074250;28;20067;-60
2023/04/26 00:48:02;;;;;;;19.17;8.20;;;;;;;10.10;58.90;101284.16;5073299;28;20517;-60
2023/04/26 00:50:30;;;;;;;23.13;7.22;;;;;;;10.03;59.14;101281.72;5074217;28;20048;-60
2023/04/26 00:52:58;;;;;;;18.08;6.90;;;;;;;10.16;58.78;101280.22;5074658;28;20056;-60
2023/04/26 00:55:26;;;;;;;16.42;7.15;;;;;;;10.03;59.24;101267.13;5074370;28;20048;-61
2023/04/26 00:57:54;;;;;;;19.27;6.88;;;;;;;10.17;58.85;101271.66;5072362;28;20063;-61
2023/04/26 01:00:21;;;;;;;14.20;6.75;;;;;;;10.11;58.79;101269.28;5056205;28;20053;-61
2023/04/26 01:02:49;;;;;;;13.30;6.15;;;;;;;10.01;58.83;101266.63;5072772;28;20589;-61
2023/04/26 01:05:18;;;;;;;14.23;6.65;;;;;;;10.01;59.23;101255.59;5074413;28;20049;-61
2023/04/26 01:07:45;;;;;;;13.23;6.75;;;;;;;9.94;59.58;101249.66;5071669;28;20060;-60
2023/04/26 01:10:13;;;;;;;17.95;6.47;;;;;;;9.81;59.99;101255.91;5056724;28;20045;-61
2023/04/26 01:12:40;;;;;;;16.70;7.15;;;;;;;9.88;59.90;101264.59;5071579;28;20415;-61
2023/04/26 01:15:09;;;;;;;17.45;7.68;;;;;;;9.67;61.13;101261.31;5074789;28;20471;-68
2023/04/26 01:17:37;;;;;;;21.95;8.02;;;;;;;9.54;62.08;101264.75;5072546;28;20052;-61
2023/04/26 01:20:07;;;;;;;24.20;9.15;;;;;;;9.54;62.69;101255.66;5073728;28;20063;-61
2023/04/26 01:22:35;;;;;;;;;;;;;;;9.47;62.61;101253.28;5054551;28;20055;-60
2023/04/26 01:25:03;;;;;;;17.73;9.18;;;;;;;9.43;63.01;101248.69;5074567;28;19932;-67
2023/04/26 01:27:32;;;;;;;21.70;9.43;;;;;;;9.52;63.07;101241.44;5073345;28;20063;-61
2023/04/26 01:29:59;;;;;;;25.48;8.95;;;;;;;9.33;62.91;101238.59;5072642;28;20063;-60
2023/04/26 01:32:27;;;;;;;24.88;9.05;;;;;;;9.46;62.99;101231.59;5065501;28;20068;-60
2023/04/26 01:34:59;;;;;;;18.80;9.38;;;;;;;9.45;62.95;101232.72;5072116;28;20510;-67
2023/04/26 01:37:29;;;;;;;18.27;8.95;;;;;;;9.55;63.19;101238.06;5059506;28;20500;-66
2023/04/26 01:39:59;;;;;;;15.63;8.75;;;;;;;9.63;62.43;101240.16;5054250;28;20044;-67
2023/04/26 01:42:26;;;;;;;20.23;8.02;;;;;;;9.53;62.49;101240.31;5057325;28;20049;-68
2023/04/26 01:44:55;;;;;;;16.23;8.63;;;;;;;9.64;62.05;101236.31;5078366;28;20225;-60
2023/04/26 01:47:22;;;;;;;21.50;9.38;;;;;;;9.64;61.82;101234.38;5058871;28;20048;-60
2023/04/26 01:49:51;;;;;;;18.00;8.18;;;;;;;9.37;62.27;101230.59;5060513;28;20377;-61
2023/04/26 01:52:21;;;;;;;18.48;7.63;;;;;;;9.39;62.90;101244.88;5075237;28;20060;-60
2023/04/26 01:54:48;;;;;;;18.95;8.07;;;;;;;9.26;62.84;101240.88;5076979;28;20052;-67
2023/04/26 01:57:16;;;;;;;17.35;8.50;;;;;;;9.25;62.98;101249.44;5076935;28;20512;-61
2023/04/26 01:59:44;;;;;;;18.38;8.65;;;;;;;9.18;63.23;101246.19;5076539;28;20049;-61
2023/04/26 02:02:11;;;;;;;22.52;8.50;;;;;;;9.26;63.36;101246.38;5074266;28;20055;-60
2023/04/26 02:04:39;;;;;;;18.33;8.25;;;;;;;9.24;63.13;101237.59;5062910;28;20067;-61
2023/04/26 02:07:06;;;;;;;15.05;8.32;;;;;;;9.34;62.64;101226.50;5073157;28;20400;-67
2023/04/26 02:09:33;;;;;;;20.08;8.80;;;;;;;9.20;62.91;101219.25;5076513;28;20052;-67
2023/04/26 02:12:01;;;;;;;22.80;8.82;;;;;;;9.08;63.53;101225.16;5058040;28;20492;-61
2023/04/26 02:14:28;;;;;;;23.67;7.95;;;;;;;9.11;63.74;101230.06;5075829;28;20057;-68
2023/04/26 02:16:56;;;;;;;17.13;8.40;;;;;;;9.00;64.22;101231.28;5071362;28;20060;-67
2023/04/26 02:19:25;;;;;;;22.80;7.78;;;;;;;9.20;63.13;101222.81;5055194;28;20052;-67
2023/04/26 02:21:57;;;;;;;20.40;7.40;;;;;;;9.14;63.09;101232.22;5068342;28;20067;-68
2023/04/26 02:24:24;;;;;;;17.00;7.10;;;;;;;9.17;62.80;101233.59;5075571;28;20056;-69
2023/04/26 02:26:53;;;;;;;14.80;5.68;;;;;;;9.28;61.70;101235.91;5074742;28;20431;-67
2023/04/26 02:29:21;;;;;;;14.20;5.72;;;;;;;9.30;61.64;101233.69;5076309;28;20049;-67
2023/04/26 02:32:06;;;;;;;15.48;6.20;;;;;;;9.29;61.18;101234.81;5074757;28;20044;-67
2023/04/26 02:34:34;;;;;;;12.63;5.22;;;;;;;9.18;61.29;101241.53;5058946;28;20103;-68
2023/04/26 02:37:02;;;;;;;17.50;5.57;;;;;;;9.28;61.25;101235.91;5058236;28;20056;-68
2023/04/26 02:39:30;;;;;;;15.13;5.68;;;;;;;9.23;61.14;101224.97;5077647;28;20052;-62
2023/04/26 02:41:58;;;;;;;16.83;5.40;;;;;;;9.32;61.08;101225.16;5074471;28;20056;-62
2023/04/26 02:44:29;;;;;;;18.00;5.50;;;;;;;9.19;61.36;101223.13;5076641;28;20064;-61
2023/04/26 02:46:57;;;;;;;13.63;5.70;;;;;;;9.18;61.57;101222.28;5074406;28;20048;-61
2023/04/26 02:49:24;;;;;;;14.88;5.72;;;;;;;9.17;61.75;101220.63;5075492;28;20048;-62
2023/04/26 02:51:52;;;;;;;19.58;5.82;;;;;;;9.21;61.57;101227.19;5073417;28;20052;-62
2023/04/26 02:54:19;;;;;;;18.92;5.88;;;;;;;9.32;61.25;101215.00;5059373;28;20063;-68
2023/04/26 02:56:47;;;;;;;17.85;5.97;;;;;;;9.33;61.36;101207.56;5075754;28;20048;-68
2023/04/26 02:59:14;;;;;;;14.00;5.38;;;;;;;9.36;61.33;101220.72;5042125;28;20091;-62
2023/04/26 03:01:42;;;;;;;17.42;6.65;;;;;;;9.41;61.35;101226.16;5073736;28;20044;-61
2023/04/26 03:04:10;;;;;;;17.75;5.63;;;;;;;9.34;61.38;101221.00;5076904;28;20072;-61
2023/04/26 03:06:38;;;;;;;16.00;5.93;;;;;;;9.27;61.36;101226.03;5041457;28;20047;-61
2023/04/26 03:09:05;;;;;;;15.90;5.45;;;;;;;9.13;61.56;101212.16;5058994;28;20059;-61
2023/04/26 03:11:32;;;;;;;16.88;5.22;;;;;;;9.22;61.89;101217.03;5075360;28;20372;-61
2023/04/26 03:14:01;;;;;;;16.02;5.32;;;;;;;9.41;61.20;101213.22;5076647;28;20052;-61
2023/04/26 03:16:30;;;;;;;16.70;6.05;;;;;;;9.33;61.11;101213.06;5073099;28;20040;-61
2023/04/26 03:18:58;;;;;;;19.65;5.88;;;;;;;9.25;61.08;101209.03;5075081;28;20061;-66
2023/04/26 03:21:26;;;;;;;15.73;5.63;;;;;;;9.24;61.53;101212.06;5075299;28;20044;-66
2023/04/26 03:23:54;;;;;;;15.02;5.88;;;;;;;9.29;61.09;101210.09;5074188;28;20049;-68
2023/04/26 03:26:21;;;;;;;17.80;5.28;;;;;;;9.25;61.30;101211.78;5071731;28;20075;-67
2023/04/26 03:28:49;;;;;;;12.65;5.43;;;;;;;9.34;61.13;101218.25;5075461;28;20048;-61
2023/04/26 03:31:16;;;;;;;11.07;4.95;;;;;;;9.19;60.71;101210.19;5072988;28;20354;-60
2023/04/26 03:33:44;;;;;;;19.02;5.53;;;;;;;9.27;60.37;101208.72;5074524;28;20055;-61
2023/04/26 03:36:11;;;;;;;10.85;5.18;;;;;;;9.24;60.54;101215.63;5073440;28;20052;-61
2023/04/26 03:38:38;;;;;;;15.52;6.13;;;;;;;9.18;60.62;101208.56;5057767;28;20056;-61
2023/04/26 03:41:06;;;;;;;18.05;5.43;;;;;;;9.09;60.88;101204.81;5056136;28;20057;-61
2023/04/26 03:43:33;;;;;;;12.80;5.40;;;;;;;9.05;61.24;101203.72;5074688;28;20151;-61
2023/04/26 03:46:01;;;;;;;15.90;5.70;;;;;;;9.05;60.78;101210.06;5072795;28;20052;-68
2023/04/26 03:48:28;;;;;;;14.45;5.47;;;;;;;8.98;60.83;101206.84;5074558;28;20056;-68
2023/04/26 03:50:55;;;;;;;13.52;5.60;;;;;;;8.94;60.90;101207.72;5072996;28;20056;-67
2023/04/26 03:53:22;;;;;;;14.30;6.07;;;;;;;8.94;60.87;101207.72;5073660;28;20377;-68
2023/04/26 03:55:50;;;;;;;15.43;5.78;;;;;;;8.83;60.84;101207.00;5074310;28;20567;-68
2023/04/26 03:58:17;;;;;;;14.27;5.65;;;;;;;8.82;61.37;101199.06;5057303;28;20062;-61
2023/04/26 04:00:45;;;;;;;18.73;6.50;;;;;;;8.91;61.13;101200.03;5069782;28;20071;-62
2023/04/26 04:03:12;;;;;;;17.30;5.70;;;;;;;8.74;61.40;101196.91;5073973;28;20044;-61
2023/04/26 04:05:40;;;;;;;19.73;6.32;;;;;;;8.71;61.77;101198.34;5056009;28;20147;-61
2023/04/26 04:08:07;;;;;;;11.38;5.55;;;;;;;8.71;62.16;101200.25;5073095;28;20059;-61
2023/04/26 04:10:36;;;;;;;15.75;6.60;;;;;;;8.81;61.79;101191.91;5074160;28;20063;-61
2023/04/26 04:13:04;;;;;;;15.65;6.18;;;;;;;8.69;62.04;101200.56;5075628;28;20052;-67
2023/04/26 04:15:31;;;;;;;13.95;6.13;;;;;;;8.67;62.33;101211.00;5072888;28;20083;-67
2023/04/26 04:17:58;;;;;;;14.13;6.40;;;;;;;8.70;62.34;101204.91;5073397;28;20060;-68
2023/04/26 04:20:26;;;;;;;16.35;6.72;;;;;;;8.82;61.65;101215.53;5073019;28;20053;-68
2023/04/26 04:22:57;;;;;;;21.05;7.40;;;;;;;8.92;61.43;101204.44;5073422;28;20110;-61
2023/04/26 04:25:25;;;;;;;12.32;6.30;;;;;;;8.83;61.82;101201.50;5056843;28;20056;-61
2023/04/26 04:27:53;;;;;;;16.23;6.88;;;;;;;8.80;62.12;101207.56;5056483;28;20060;-68
2023/04/26 04:30:20;;;;;;;15.35;6.82;;;;;;;8.87;61.81;101210.78;5073637;28;20052;-69
2023/04/26 04:32:48;;;;;;;20.33;6.72;;;;;;;8.78;61.50;101209.81;5072991;28;20411;-68
2023/04/26 04:35:16;;;;;;;14.45;6.25;;;;;;;8.85;62.05;101213.03;5073921;28;20079;-67
2023/04/26 04:37:44;;;;;;;13.15;5.80;;;;;;;8.89;61.80;101208.56;5060067;28;20420;-68
2023/04/26 04:40:12;;;;;;;15.95;7.13;;;;;;;8.97;61.25;101204.38;5053972;28;20052;-68
2023/04/26 04:42:43;;;;;;;;;;;;;;;8.93;61.57;101204.16;5072901;28;20059;-68
2023/04/26 04:45:11;;;;;;;17.00;6.25;;;;;;;9.22;60.87;101200.53;5089815;28;19925;-61
2023/04/26 04:47:39;;;;;;;15.10;6.30;;;;;;;9.00;61.00;101203.78;5055435;28;20503;-61
2023/04/26 04:50:07;;;;;;;13.45;5.93;;;;;;;8.81;61.38;101203.72;5040115;28;20052;-61
2023/04/26 04:52:34;;;;;;;15.30;6.20;;;;;;;8.57;62.31;101202.84;5055722;28;20044;-67
2023/04/26 04:55:03;;;;;;;17.52;7.07;;;;;;;8.67;62.29;101200.00;5040225;28;20051;-68
2023/04/26 04:57:31;;;;;;;17.38;6.30;;;;;;;8.81;61.42;101211.13;5072060;28;20056;-67
2023/04/26 05:00:06;;;;;;;18.02;7.15;;;;;;;8.74;61.98;101205.16;5056267;28;20060;-67
2023/04/26 05:02:34;;;;;;;14.52;6.63;;;;;;;8.86;61.52;101200.09;5071791;28;20377;-67
2023/04/26 05:05:04;;;;;;;18.52;6.22;;;;;;;8.76;61.61;101200.19;5043861;28;20053;-68
2023/04/26 05:07:31;;;;;;;13.23;5.90;;;;;;;9.13;60.82;101199.53;5073180;28;20056;-61
2023/04/26 05:10:00;;;;;;;13.95;5.65;;;;;;;8.89;61.30;101196.78;5053008;28;20057;-61
2023/04/26 05:12:28;;;;;;;18.30;6.57;;;;;;;8.94;60.99;101194.78;5070587;28;20503;-66
2023/04/26 05:14:56;;;;;;;14.40;6.18;;;;;;;8.93;61.23;101204.16;5073121;28;20056;-67
2023/04/26 05:17:23;;;;;;;18.52;7.20;;;;;;;8.86;61.34;101200.09;5071756;28;20048;-69
2023/04/26 05:19:53;;;;;;;17.95;6.38;;;;;;;8.92;61.13;101198.94;5073097;28;20060;-61
2023/04/26 05:22:21;;;;;;;15.52;7.15;;;;;;;9.12;60.76;101204.22;5072928;28;20048;-62
2023/04/26 05:24:49;;;;;;;16.40;6.90;;;;;;;9.39;60.07;101209.13;5073316;28;20055;-61
2023/04/26 05:27:18;;;;;;;16.27;6.85;;;;;;;9.08;60.94;101223.22;5072124;28;20049;-62
2023/04/26 05:30:11;;;;;;;18.77;7.53;;;;;;;9.02;61.15;101223.56;5074064;28;20060;-62
2023/04/26 05:32:57;;;;;;;20.10;6.78;;;;;;;9.03;61.29;101226.00;5073981;28;20045;-61
2023/04/26 05:35:34;;;;;;;13.80;6.78;;;;;;;9.34;60.76;101217.44;5056005;28;20052;-69
2023/04/26 05:38:04;;;;;;;18.02;7.55;;;;;;;9.16;61.12;101220.94;5055718;28;20052;-68
2023/04/26 05:40:31;;;;;;;14.13;7.13;;;;;;;9.06;61.12;101217.22;5071810;28;20056;-68
2023/04/26 05:42:59;;;;;;;18.08;7.38;;;;;;;9.13;60.95;101222.34;5055856;28;20059;-69
2023/04/26 05:45:27;;;;;;;18.35;7.78;;;;;;;9.29;60.73;101215.56;5071877;28;20060;-61
2023/04/26 05:47:55;;;;;;;19.17;7.35;;;;;;;9.07;61.40;101220.75;5072741;28;20583;-67
2023/04/26 05:50:24;;;;;;;17.27;8.43;;;;;;;8.91;62.15;101222.00;5073325;28;20049;-67
2023/04/26 05:52:51;;;;;;;19.98;7.80;;;;;;;8.99;62.21;101219.47;5071436;28;20056;-68
2023/04/26 05:55:20;;;;;;;17.98;8.90;;;;;;;8.99;62.11;101214.00;5072663;28;20055;-68
2023/04/26 05:57:48;;;;;;;16.93;7.33;;;;;;;9.08;61.69;101220.47;5056079;28;20526;-68
2023/04/26 06:00:18;;;;;;;19.08;7.18;;;;;;;9.04;61.79;101219.44;5072556;28;20056;-61
2023/04/26 06:02:47;;;;;;;17.17;7.78;;;;;;;9.02;61.81;101223.56;5068867;28;20044;-61
2023/04/26 06:05:17;;;;;;;15.40;7.18;;;;;;;9.14;61.46;101221.22;5053513;28;20053;-61
2023/04/26 06:07:45;;;;;;;20.92;7.32;;;;;;;9.26;60.80;101221.63;5072038;28;20049;-60
2023/04/26 06:10:12;;;;;;;17.45;7.22;;;;;;;9.44;60.21;101220.06;5073102;28;20053;-62
2023/04/26 06:12:40;;;;;;;15.68;7.10;;;;;;;9.19;60.75;101228.63;5055689;28;20067;-62
2023/04/26 06:15:08;;;;;;;14.65;7.28;;;;;;;9.13;61.02;101236.88;5072624;28;20051;-62
2023/04/26 06:17:39;;;;;;;19.05;8.20;;;;;;;9.10;61.13;101229.25;5072120;28;20059;-61
2023/04/26 06:20:11;;;;;;;;;;;;;;;9.19;61.13;101236.88;5073501;28;20059;-61
2023/04/26 06:22:38;;;;;;;18.05;7.10;;;;;;;9.28;60.72;101240.59;5072677;28;19921;-62
2023/04/26 06:25:07;;;;;;;17.67;8.00;;;;;;;9.18;61.10;101232.47;5056644;28;20059;-69
2023/04/26 06:27:37;;;;;;;19.98;7.78;;;;;;;9.13;61.69;101234.13;5074953;28;20052;-68
2023/04/26 06:30:06;;;;;;;19.67;8.25;;;;;;;9.19;61.77;101220.38;5076018;28;20060;-68
2023/04/26 06:32:38;;;;;;;18.98;8.23;;;;;;;9.16;62.17;101216.25;5046758;28;20052;-67
2023/04/26 06:35:06;;;;;;;18.58;8.20;;;;;;;9.28;62.55;101221.34;5056484;28;20687;-67
2023/04/26 06:37:34;;;;;;;25.02;7.57;;;;;;;9.45;62.12;101218.97;5057551;28;20052;-68
2023/04/26 06:40:01;;;;;;;21.98;10.23;;;;;;;9.58;61.49;101224.56;5075785;28;20044;-67
2023/04/26 06:42:29;;;;;;;20.23;9.35;;;;;;;9.63;61.73;101221.75;5074778;28;20044;-67
2023/04/26 06:45:23;;;;;;;21.33;8.40;;;;;;;9.54;60.84;101219.94;5070714;28;20494;-63
2023/04/26 06:47:51;;;;;;;20.20;7.93;;;;;;;9.56;60.93;101224.03;5057900;28;20044;-61
2023/04/26 06:50:23;;;;;;;16.77;8.48;;;;;;;9.84;60.56;101225.88;5075961;28;20052;-61
2023/04/26 06:52:50;;;;;;;16.75;8.10;;;;;;;9.89;60.53;101223.03;5074813;28;20048;-61
2023/04/26 06:55:17;;;;;;;20.33;7.53;;;;;;;10.22;59.75;101221.19;5075242;28;20063;-60
2023/04/26 06:57:45;;;;;;;25.77;7.97;;;;;;;10.15;59.15;101218.84;5057653;28;20045;-61
2023/04/26 07:00:13;;;;;;;19.13;7.82;;;;;;;10.26;58.85;101219.50;5062130;28;20053;-61
2023/04/26 07:02:41;;;;;;;21.15;7.97;;;;;;;10.24;58.57;101221.72;5065532;28;20044;-62
2023/04/26 07:05:08;;;;;;;18.23;7.95;;;;;;;10.27;58.57;101228.59;5053761;28;20055;-59
2023/04/26 07:07:36;;;;;;;20.65;7.72;;;;;;;10.41;58.81;101223.97;5066281;28;20056;-62
2023/04/26 07:10:04;;;;;;;30.98;8.25;;;;;;;10.69;58.49;101220.16;5065548;28;20060;-61
2023/04/26 07:12:31;;;;;;;32.30;8.00;;;;;;;10.72;56.98;101225.06;5049510;28;20049;-62
2023/04/26 07:15:00;;;;;;;16.80;7.40;;;;;;;10.94;55.96;101228.81;5072999;28;20048;-62
2023/04/26 07:17:27;;;;;;;26.10;8.45;;;;;;;10.91;55.93;101225.84;5071004;28;20071;-60
2023/04/26 07:19:55;;;;;;;22.50;8.20;;;;;;;11.03;56.16;101228.91;5056361;28;20599;-62
2023/04/26 07:22:23;;;;;;;21.88;10.43;;;;;;;11.07;55.58;101235.47;5067851;28;20049;-61
2023/04/26 07:24:50;;;;;;;21.00;7.35;;;;;;;10.78;56.65;101230.19;5071115;28;20428;-61
2023/04/26 07:27:17;;;;;;;25.13;9.70;;;;;;;10.99;56.80;101225.94;5069187;28;20051;-61
2023/04/26 07:29:44;;;;;;;24.55;7.55;;;;;;;11.03;55.95;101224.22;5072370;28;20052;-61
2023/04/26 07:32:12;;;;;;;18.88;7.00;;;;;;;11.08;56.05;101226.88;5063763;28;20052;-60
2023/04/26 07:34:39;;;;;;;19.23;6.93;;;;;;;11.14;55.66;101222.09;5066411;28;20052;-63
2023/04/26 07:37:07;;;;;;;26.00;7.10;;;;;;;11.28;55.15;101223.72;5075961;28;20057;-60
2023/04/26 07:39:34;;;;;;;20.65;7.15;;;;;;;11.30;54.66;101218.72;5066854;28;20530;-61
2023/04/26 07:42:02;;;;;;;15.10;6.80;;;;;;;11.52;54.53;101217.19;5069005;28;20049;-61
2023/04/26 07:44:29;;;;;;;18.40;6.50;;;;;;;11.52;54.77;101215.25;5060915;28;20400;-60
2023/04/26 07:46:56;;;;;;;16.70;6.20;;;;;;;11.53;54.04;101202.25;5069689;28;20083;-62
2023/04/26 07:49:24;;;;;;;25.15;6.65;;;;;;;11.53;54.53;101202.25;5073328;28;20059;-61
2023/04/26 07:51:51;;;;;;;17.75;6.97;;;;;;;11.78;53.20;101208.13;5067931;28;20072;-60
2023/04/26 07:54:19;;;;;;;20.17;6.85;;;;;;;11.90;53.40;101205.63;5056150;28;20040;-59
2023/04/26 07:56:46;;;;;;;14.07;6.22;;;;;;;11.92;52.57;101202.56;5063886;28;20059;-61
2023/04/26 07:59:14;;;;;;;22.27;6.03;;;;;;;11.93;53.05;101198.66;5067589;28;20056;-60
2023/04/26 08:01:41;;;;;;;27.35;6.32;;;;;;;12.00;52.59;101208.16;5068831;28;20421;-61
2023/04/26 08:04:08;;;;;;;21.73;6.63;;;;;;;11.95;52.42;101204.69;5063991;28;20043;-61
2023/04/26 08:06:38;;;;;;;18.15;6.35;;;;;;;11.61;52.29;101210.63;5064297;28;20407;-61
2023/04/26 08:09:05;;;;;;;19.60;6.43;;;;;;;11.59;53.16;101209.31;5064408;28;20526;-61
2023/04/26 08:11:32;;;;;;;19.02;6.40;;;;;;;11.91;52.28;101206.44;5066028;28;20360;-60
2023/04/26 08:14:00;;;;;;;17.15;6.85;;;;;;;12.05;52.17;101208.03;5060552;28;20044;-59
2023/04/26 08:16:27;;;;;;;20.50;6.63;;;;;;;12.11;52.20;101200.44;5058589;28;20408;-60
2023/04/26 08:19:01;;;;;;;20.35;6.78;;;;;;;12.11;51.73;101204.03;5068574;28;20062;-60
2023/04/26 08:21:28;;;;;;;14.70;6.38;;;;;;;12.13;51.54;101201.75;5060519;28;20586;-58
2023/04/26 08:23:55;;;;;;;19.17;6.30;;;;;;;12.16;51.39;101203.91;5067447;28;20056;-60
2023/04/26 08:26:23;;;;;;;18.63;5.75;;;;;;;12.31;50.84;101197.19;5062836;28;20052;-60
2023/04/26 08:28:50;;;;;;;19.65;6.35;;;;;;;12.41;50.39;101183.16;5064724;28;20578;-60
2023/04/26 08:31:18;;;;;;;18.90;5.68;;;;;;;12.46;49.92;101194.06;5067367;28;20053;-61
2023/04/26 08:33:45;;;;;;;17.65;6.07;;;;;;;12.46;50.07;101180.25;5060186;28;20060;-60
2023/04/26 08:36:12;;;;;;;16.55;5.75;;;;;;;12.55;50.09;101185.84;5077621;28;20055;-61
2023/04/26 08:38:40;;;;;;;18.33;6.05;;;;;;;12.58;50.16;101183.25;5056005;28;20527;-61
2023/04/26 08:41:15;;;;;;;12.98;5.20;;;;;;;12.74;50.73;101180.94;5064664;28;20059;-59
2023/04/26 08:43:43;;;;;;;17.60;5.35;;;;;;;13.01;50.04;101180.72;5059078;28;20048;-60
2023/04/26 08:46:14;;;;;;;19.27;6.35;;;;;;;13.12;49.20;101184.88;5064600;28;20052;-58
2023/04/26 08:48:41;;;;;;;16.08;5.47;;;;;;;13.10;49.23;101181.63;5062259;28;20052;-60
2023/04/26 08:51:11;;;;;;;14.77;6.05;;;;;;;13.07;49.43;101176.72;5062635;28;20052;-59
2023/04/26 08:53:40;;;;;;;18.52;6.45;;;;;;;13.07;49.80;101182.25;5055257;28;20056;-61
2023/04/26 08:56:10;;;;;;;22.30;6.13;;;;;;;13.05;49.55;101181.75;5066643;28;20044;-61
2023/04/26 08:58:37;;;;;;;12.95;5.15;;;;;;;13.22;49.16;101187.38;5065697;28;20048;-61
2023/04/26 09:01:05;;;;;;;16.88;5.78;;;;;;;13.12;48.73;101176.59;5068383;28;20056;-60
2023/04/26 09:03:33;;;;;;;16.20;5.20;;;;;;;13.47;47.59;101193.00;5062798;28;20052;-61
2023/04/26 09:06:00;;;;;;;11.32;5.10;;;;;;;13.29;48.65;101183.00;5064331;28;20500;-59
2023/04/26 09:08:32;;;;;;;19.52;5.47;;;;;;;13.07;48.73;101183.09;5068995;28;20045;-61
2023/04/26 09:10:59;;;;;;;17.73;5.22;;;;;;;13.28;49.05;101180.56;5067275;28;20048;-60
2023/04/26 09:13:28;;;;;;;13.63;5.18;;;;;;;13.48;49.34;101182.72;5069013;28;20052;-60
2023/04/26 09:15:56;;;;;;;14.23;5.97;;;;;;;13.60;48.40;101176.59;5067976;28;20161;-60
2023/04/26 09:18:24;;;;;;;12.63;5.50;;;;;;;13.66;48.84;101178.06;5065794;28;20639;-60
2023/04/26 09:21:05;;;;;;;22.05;6.05;;;;;;;13.61;48.78;101179.03;5064239;28;20060;-61
2023/04/26 09:23:34;;;;;;;16.45;6.45;;;;;;;13.64;50.49;101180.31;5065337;28;20045;-61
2023/04/26 09:26:20;;;;;;;14.57;4.97;;;;;;;14.05;48.99;101175.19;5065805;28;20127;-62
2023/04/26 09:28:47;;;;;;;17.20;5.97;;;;;;;13.78;48.45;101175.47;5065702;28;20063;-61
2023/04/26 09:31:38;;;;;;;15.20;5.85;;;;;;;13.85;48.61;101171.09;5064434;28;20045;-60
2023/04/26 09:34:05;;;;;;;15.15;5.28;;;;;;;13.89;48.43;101171.25;5063835;28;20056;-60
2023/04/26 09:36:51;;;;;;;17.23;5.40;;;;;;;13.65;48.26;101173.66;5062724;28;20052;-61
2023/04/26 09:39:39;;;;;;;15.55;5.93;;;;;;;13.96;48.49;101175.19;5071192;28;20056;-62
2023/04/26 09:42:07;;;;;;;10.63;4.93;;;;;;;13.97;48.43;101182.34;5068893;28;20060;-62
2023/04/26 09:44:35;;;;;;;14.23;5.45;;;;;;;14.03;47.82;101171.91;5050977;28;20079;-60
2023/04/26 09:47:06;;;;;;;14.88;5.10;;;;;;;14.06;46.88;101162.94;5060210;28;20063;-61
2023/04/26 09:49:45;;;;;;;13.55;4.43;;;;;;;14.10;47.16;101152.84;5056005;28;20068;-60
2023/04/26 09:52:13;;;;;;;12.03;4.60;;;;;;;13.92;47.48;101159.53;5069611;28;20056;-61
2023/04/26 09:54:43;;;;;;;8.93;4.45;;;;;;;14.06;46.86;101160.19;5057229;28;20291;-61
2023/04/26 09:57:12;;;;;;;13.77;4.60;;;;;;;14.02;46.96;101154.47;5072647;28;20060;-62
2023/04/26 09:59:51;;;;;;;10.68;4.20;;;;;;;13.96;46.40;101143.91;5068256;28;20049;-63
2023/04/26 10:02:23;;;;;;;13.15;4.82;;;;;;;14.27;46.39;101147.31;5070044;28;20056;-62
2023/04/26 10:04:53;;;;;;;10.73;4.30;;;;;;;14.25;45.77;101147.63;5047020;28;20041;-61
2023/04/26 10:07:23;;;;;;;13.73;4.65;;;;;;;14.06;46.46;101144.38;5064434;28;20049;-62
2023/04/26 10:09:50;;;;;;;12.53;4.57;;;;;;;14.09;46.07;101135.41;5058244;28;20057;-60
2023/04/26 10:12:18;;;;;;;10.55;4.35;;;;;;;14.27;45.37;101136.25;5035746;28;20044;-63
2023/04/26 10:14:47;;;;;;;13.65;4.45;;;;;;;14.39;45.41;101137.22;5072642;28;20056;-61
2023/04/26 10:17:16;;;;;;;10.45;4.38;;;;;;;14.47;44.53;101136.38;5054410;28;20060;-62
2023/04/26 10:19:45;;;;;;;11.50;4.43;;;;;;;14.63;43.51;101143.03;5063610;28;20068;-63
2023/04/26 10:22:21;;;;;;;15.52;4.78;;;;;;;14.37;44.01;101136.72;5064755;28;20059;-63
2023/04/26 10:24:49;;;;;;;16.92;4.43;;;;;;;14.62;43.60;101132.28;5071246;28;20041;-62
2023/04/26 10:27:42;;;;;;;9.23;3.78;;;;;;;14.71;44.44;101133.06;5065125;28;20044;-62
2023/04/26 10:30:14;;;;;;;11.90;4.78;;;;;;;14.66;44.32;101124.94;5056109;28;20057;-61
2023/04/26 10:32:52;;;;;;;10.68;5.03;;;;;;;14.91;44.35;101126.78;5078329;28;20055;-62
2023/04/26 10:35:20;;;;;;;14.23;6.72;;;;;;;15.04;44.87;101124.94;5058547;28;20072;-63
2023/04/26 10:38:07;;;;;;;12.52;6.53;;;;;;;15.05;43.79;101107.97;5074357;28;20045;-62
2023/04/26 10:40:39;;;;;;;13.32;4.50;;;;;;;15.07;42.99;101125.09;5066679;28;20083;-61
2023/04/26 10:43:10;;;;;;;12.60;4.15;;;;;;;15.13;43.24;101122.94;5072763;28;20049;-61
2023/04/26 10:45:39;;;;;;;12.52;4.75;;;;;;;15.14;43.07;101122.59;5070823;28;20060;-64
2023/04/26 10:48:12;;;;;;;14.02;4.03;;;;;;;15.11;43.77;101130.78;5069725;28;20048;-62
2023/04/26 10:50:59;;;;;;;8.98;4.07;;;;;;;14.87;43.38;101131.34;5064443;28;20060;-60
2023/04/26 10:53:30;;;;;;;12.68;6.43;;;;;;;14.46;43.28;101117.31;5059780;28;20147;-62
2023/04/26 10:55:58;;;;;;;12.40;4.90;;;;;;;14.68;43.50;101119.84;5068372;28;20044;-63
2023/04/26 10:58:33;;;;;;;12.05;4.13;;;;;;;14.99;42.63;101114.03;5070495;28;20052;-61
2023/04/26 11:01:19;;;;;;;10.15;4.43;;;;;;;15.06;43.09;101120.69;5067744;28;20044;-62
2023/04/26 11:03:56;;;;;;;10.13;4.10;;;;;;;14.99;43.25;101119.59;5073108;28;20052;-65
2023/04/26 11:06:28;;;;;;;11.70;4.38;;;;;;;15.13;43.42;101120.97;5071043;28;20045;-62
2023/04/26 11:08:58;;;;;;;9.57;4.22;;;;;;;15.03;43.66;101112.22;5072380;28;20767;-62
2023/04/26 11:11:28;;;;;;;;;;;;;;;15.18;43.14;101112.47;5070869;28;20400;-61
2023/04/26 11:13:55;;;;;;;9.82;4.13;;;;;;;15.36;42.78;101107.66;5070368;28;19932;-62
2023/04/26 11:16:27;;;;;;;8.93;3.72;;;;;;;15.35;42.72;101111.56;5060691;28;20453;-61
2023/04/26 11:18:55;;;;;;;14.25;4.38;;;;;;;15.26;42.46;101108.81;5061026;28;20064;-62
2023/04/26 11:21:22;;;;;;;10.02;4.28;;;;;;;15.10;42.12;101106.97;5064128;28;20480;-61
2023/04/26 11:23:54;;;;;;;11.05;3.90;;;;;;;15.13;42.31;101101.53;5047562;28;20100;-62
2023/04/26 11:26:21;;;;;;;11.25;4.15;;;;;;;15.08;42.56;101096.19;5061032;28;20123;-62
2023/04/26 11:28:48;;;;;;;8.50;3.67;;;;;;;15.26;42.96;101097.72;5051457;28;20048;-62
2023/04/26 11:31:17;;;;;;;10.88;4.53;;;;;;;15.33;41.77;101100.78;5066906;28;20049;-62